Hanover, Connecticut
Current Conditions -  °F | °C
As of 9:52 AM on Saturday 22 Nov 2014 (Local Time) from KIJD Reporting Station
Clear Clear  
Wind Chill: 26°   Ceiling: Unl
Heat Index: 34°   Visibility: 10mi
Dew Point: 11°   Wind: 10mph
Humidity: 38%   Direction: 230°SW
Pressure: 30.4"   Gusts: NA
Location:  41.64°N, 72.07°W
Report Text: KIJD 221452Z AUTO 23009KT 10SM CLR 01/M12 A3040 RMK AO2 SLP297 T00111117 58015
Loading
Personal Weather Stations






























Interactive Weather Map New forecast layout! Learn more

10-Day Weather Forecast

Advertisements
Track Severe Weather on mobile